createdAt,value
2019-02-10T00:00:31.618Z,1.60
2019-02-10T00:03:03.371Z,1.60
2019-02-10T00:05:34.683Z,1.50
2019-02-10T00:08:06.169Z,1.50
2019-02-10T00:10:37.486Z,1.50
2019-02-10T00:13:36.410Z,1.50
2019-02-10T00:16:19.888Z,1.50
2019-02-10T00:18:51.149Z,1.50
2019-02-10T00:21:22.716Z,1.60
2019-02-10T00:23:54.022Z,1.50
2019-02-10T00:26:25.566Z,1.60
2019-02-10T00:28:56.830Z,1.60
2019-02-10T00:31:28.155Z,3.50
2019-02-10T00:33:59.729Z,1.70
2019-02-10T00:36:33.184Z,1.70
2019-02-10T00:39:08.310Z,1.70
2019-02-10T00:41:39.932Z,1.70
2019-02-10T00:44:11.392Z,1.70
2019-02-10T00:46:42.667Z,1.70
2019-02-10T00:49:13.835Z,1.80
2019-02-10T00:51:45.050Z,1.90
2019-02-10T00:54:16.202Z,2.00
2019-02-10T00:56:47.807Z,2.00
2019-02-10T00:59:19.351Z,2.00
2019-02-10T01:01:50.979Z,1.90
2019-02-10T01:04:22.261Z,1.90
2019-02-10T01:06:53.665Z,1.80
2019-02-10T01:09:25.247Z,1.90
2019-02-10T01:11:56.388Z,2.00
2019-02-10T01:14:27.553Z,2.00
2019-02-10T01:16:58.774Z,2.00
2019-02-10T01:19:30.340Z,2.00
2019-02-10T01:22:01.637Z,2.00
2019-02-10T01:24:32.878Z,2.00
2019-02-10T01:27:04.748Z,2.00
2019-02-10T01:29:36.146Z,2.00
2019-02-10T01:32:07.582Z,1.90
2019-02-10T01:34:39.311Z,2.00
2019-02-10T01:37:10.828Z,2.00
2019-02-10T01:39:42.322Z,2.10
2019-02-10T01:42:14.711Z,2.10
2019-02-10T01:44:46.176Z,2.00
2019-02-10T01:47:17.467Z,2.00
2019-02-10T01:49:48.928Z,2.00
2019-02-10T01:52:20.100Z,2.10
2019-02-10T01:54:51.295Z,2.10
2019-02-10T01:57:22.534Z,2.10
2019-02-10T01:59:53.769Z,2.00
2019-02-10T02:02:25.046Z,1.90
2019-02-10T02:04:57.245Z,1.80
2019-02-10T02:07:28.591Z,1.80
2019-02-10T02:09:59.773Z,1.80
2019-02-10T02:12:31.160Z,1.70
2019-02-10T02:15:02.481Z,1.80
2019-02-10T02:17:34.036Z,1.70
2019-02-10T02:20:05.881Z,1.70
2019-02-10T02:22:37.375Z,1.60
2019-02-10T02:25:12.115Z,1.60
2019-02-10T02:27:43.880Z,1.50
2019-02-10T02:30:16.778Z,1.60
2019-02-10T02:32:48.491Z,1.70
2019-02-10T02:35:20.031Z,1.60
2019-02-10T02:37:51.436Z,1.70
2019-02-10T02:40:22.784Z,1.80
2019-02-10T02:42:54.166Z,1.70
2019-02-10T02:45:25.523Z,1.80
2019-02-10T02:47:56.933Z,1.80
2019-02-10T02:50:28.241Z,1.80
2019-02-10T02:52:59.550Z,1.80
2019-02-10T02:55:30.946Z,1.70
2019-02-10T02:58:02.270Z,1.80
2019-02-10T03:00:33.622Z,1.90
2019-02-10T03:03:05.059Z,1.90
2019-02-10T03:05:36.544Z,1.90
2019-02-10T03:08:08.025Z,2.00
2019-02-10T03:10:39.447Z,2.00
2019-02-10T03:13:10.733Z,1.90
2019-02-10T03:15:43.348Z,1.90
2019-02-10T03:18:14.792Z,1.80
2019-02-10T03:20:46.081Z,1.80
2019-02-10T03:23:17.478Z,1.80
2019-02-10T03:25:48.873Z,1.80
2019-02-10T03:28:20.232Z,1.80
2019-02-10T03:30:51.522Z,1.80
2019-02-10T03:33:22.890Z,1.80
2019-02-10T03:35:54.225Z,1.90
2019-02-10T03:38:25.794Z,1.90
2019-02-10T03:40:57.623Z,1.90
2019-02-10T03:43:28.869Z,1.90
2019-02-10T03:46:00.493Z,2.00
2019-02-10T03:48:31.809Z,2.10
2019-02-10T03:51:03.637Z,2.10
2019-02-10T03:53:35.499Z,2.30
2019-02-10T03:56:06.988Z,2.30
2019-02-10T03:58:38.276Z,2.30
2019-02-10T04:01:10.149Z,2.30
2019-02-10T04:03:41.502Z,2.30
2019-02-10T04:06:13.378Z,2.30
2019-02-10T04:08:44.774Z,2.30
2019-02-10T04:11:16.307Z,2.20
2019-02-10T04:13:47.639Z,2.20
2019-02-10T04:16:19.038Z,2.10
2019-02-10T04:18:50.466Z,2.30
2019-02-10T04:21:22.046Z,2.40
2019-02-10T04:23:53.229Z,2.50
2019-02-10T04:26:24.536Z,2.60
2019-02-10T04:28:55.721Z,2.60
2019-02-10T04:31:27.262Z,2.70
2019-02-10T04:33:59.273Z,2.80
2019-02-10T04:36:30.492Z,2.90
2019-02-10T04:39:02.128Z,2.80
2019-02-10T04:41:35.121Z,2.80
2019-02-10T04:44:06.504Z,2.80
2019-02-10T04:46:37.330Z,2.80
2019-02-10T04:49:08.669Z,3.00
2019-02-10T04:51:40.463Z,3.00
2019-02-10T04:54:11.837Z,2.90
2019-02-10T04:56:43.109Z,3.00
2019-02-10T04:59:14.843Z,3.00
2019-02-10T05:01:46.265Z,3.00
2019-02-10T05:04:17.597Z,3.00
2019-02-10T05:06:48.993Z,2.90
2019-02-10T05:09:20.381Z,2.90
2019-02-10T05:11:51.932Z,2.80
2019-02-10T05:14:23.343Z,2.70
2019-02-10T05:16:54.809Z,2.70
2019-02-10T05:19:26.176Z,2.70
2019-02-10T05:21:57.842Z,2.70
2019-02-10T05:24:29.189Z,3.00
2019-02-10T05:27:00.478Z,3.20
2019-02-10T05:29:32.000Z,3.20
2019-02-10T05:32:03.525Z,3.30
2019-02-10T05:34:35.011Z,3.30
2019-02-10T05:37:06.313Z,3.30
2019-02-10T05:39:37.810Z,3.30
2019-02-10T05:42:09.593Z,3.20
2019-02-10T05:44:41.129Z,3.10
2019-02-10T05:47:12.508Z,3.20
2019-02-10T05:49:43.969Z,3.20
2019-02-10T05:52:15.318Z,3.10
2019-02-10T05:54:46.915Z,3.00
2019-02-10T05:57:18.463Z,2.90
2019-02-10T05:59:49.892Z,2.90
2019-02-10T06:02:38.446Z,3.00
2019-02-10T06:05:20.030Z,3.00
2019-02-10T06:07:51.763Z,3.00
2019-02-10T06:10:23.174Z,3.00
2019-02-10T06:12:54.659Z,3.00
2019-02-10T06:15:26.308Z,2.90
2019-02-10T06:17:58.159Z,2.80
2019-02-10T06:20:29.452Z,2.80
2019-02-10T06:23:00.882Z,2.70
2019-02-10T06:25:32.337Z,2.60
2019-02-10T06:28:04.204Z,2.60
2019-02-10T06:30:36.249Z,2.60
2019-02-10T06:33:07.709Z,2.80
2019-02-10T06:35:39.189Z,3.00
2019-02-10T06:38:10.651Z,3.10
2019-02-10T06:40:42.335Z,0.90
2019-02-10T06:43:14.060Z,3.20
2019-02-10T06:45:45.603Z,3.00
2019-02-10T06:48:16.994Z,3.10
2019-02-10T06:50:48.521Z,3.10
2019-02-10T06:53:20.024Z,3.20
2019-02-10T06:55:51.591Z,3.10
2019-02-10T06:58:23.111Z,3.20
2019-02-10T07:01:03.660Z,3.30
2019-02-10T07:03:56.065Z,3.40
2019-02-10T07:06:27.420Z,3.50
2019-02-10T07:08:58.946Z,3.50
2019-02-10T07:11:30.162Z,3.40
2019-02-10T07:14:03.520Z,3.40
2019-02-10T07:16:54.292Z,3.40
2019-02-10T07:20:39.161Z,3.40
2019-02-10T07:23:56.384Z,3.50
2019-02-10T07:26:54.834Z,3.50
2019-02-10T07:30:29.157Z,3.50
2019-02-10T07:33:00.839Z,3.50
2019-02-10T07:36:18.027Z,3.50
2019-02-10T07:39:27.778Z,3.60
2019-02-10T07:42:28.724Z,3.50
2019-02-10T07:45:53.831Z,3.60
2019-02-10T07:49:02.389Z,3.80
2019-02-10T07:52:28.542Z,3.90
2019-02-10T07:55:43.605Z,3.90
2019-02-10T07:59:16.922Z,3.90
2019-02-10T08:02:53.379Z,4.00
2019-02-10T08:06:19.847Z,4.20
2019-02-10T08:10:12.692Z,4.50
2019-02-10T08:13:47.152Z,4.60
2019-02-10T08:17:14.650Z,4.50
2019-02-10T08:20:43.943Z,4.50
2019-02-10T08:23:57.195Z,4.40
2019-02-10T08:27:00.057Z,4.40
2019-02-10T08:29:48.380Z,4.40
2019-02-10T08:33:40.851Z,4.40
2019-02-10T08:37:26.449Z,4.50
2019-02-10T08:41:09.099Z,4.60
2019-02-10T08:44:21.715Z,4.80
2019-02-10T08:48:09.059Z,5.10
2019-02-10T08:51:38.062Z,5.30
2019-02-10T08:54:10.239Z,5.40
2019-02-10T08:56:41.401Z,5.40
2019-02-10T08:59:12.536Z,5.50
2019-02-10T09:01:43.783Z,5.50
2019-02-10T09:04:15.487Z,5.50
2019-02-10T09:06:46.625Z,5.50
2019-02-10T09:09:17.856Z,5.60
2019-02-10T09:11:49.068Z,5.60
2019-02-10T09:14:20.577Z,5.50
2019-02-10T09:16:51.729Z,5.50
2019-02-10T09:19:22.949Z,5.70
2019-02-10T09:21:54.266Z,5.60
2019-02-10T09:24:25.409Z,5.40
2019-02-10T09:26:56.706Z,5.50
2019-02-10T09:29:27.985Z,5.60
2019-02-10T09:31:59.227Z,5.70
2019-02-10T09:34:31.431Z,5.80
2019-02-10T09:37:02.825Z,5.90
2019-02-10T09:39:34.069Z,5.80
2019-02-10T09:42:05.627Z,6.00
2019-02-10T09:44:37.153Z,6.10
2019-02-10T09:47:08.432Z,6.00
2019-02-10T09:49:39.568Z,5.90
2019-02-10T09:52:10.775Z,5.80
2019-02-10T09:54:41.982Z,5.90
2019-02-10T09:57:13.575Z,5.80
2019-02-10T09:59:44.720Z,5.70
2019-02-10T10:02:16.415Z,5.80
2019-02-10T10:04:47.913Z,5.90
2019-02-10T10:07:19.139Z,6.10
2019-02-10T10:09:50.352Z,6.50
2019-02-10T10:12:21.586Z,6.80
2019-02-10T10:14:52.738Z,7.30
2019-02-10T10:17:24.041Z,7.60
2019-02-10T10:19:55.496Z,7.70
2019-02-10T10:22:26.954Z,7.70
2019-02-10T10:24:58.214Z,7.60
2019-02-10T10:27:29.482Z,7.60
2019-02-10T10:30:01.006Z,7.60
2019-02-10T10:32:32.366Z,7.60
2019-02-10T10:35:03.723Z,7.40
2019-02-10T10:37:35.028Z,7.40
2019-02-10T10:40:07.127Z,7.70
2019-02-10T10:42:38.429Z,8.00
2019-02-10T10:45:10.346Z,8.20
2019-02-10T10:47:42.033Z,8.10
2019-02-10T10:50:13.455Z,7.80
2019-02-10T10:52:44.997Z,7.60
2019-02-10T10:55:16.399Z,7.90
2019-02-10T10:57:48.169Z,8.30
2019-02-10T11:00:19.605Z,8.50
2019-02-10T11:02:50.906Z,8.50
2019-02-10T11:05:22.567Z,8.30
2019-02-10T11:07:53.809Z,7.90
2019-02-10T11:10:25.179Z,7.60
2019-02-10T11:12:56.580Z,7.70
2019-02-10T11:15:28.034Z,7.90
2019-02-10T11:17:59.721Z,8.20
2019-02-10T11:20:31.098Z,8.50
2019-02-10T11:23:02.396Z,8.70
2019-02-10T11:25:33.673Z,8.70
2019-02-10T11:28:04.990Z,8.80
2019-02-10T11:30:36.312Z,8.90
2019-02-10T11:33:07.566Z,8.90
2019-02-10T11:35:39.106Z,9.00
2019-02-10T11:38:10.357Z,9.10
2019-02-10T11:40:41.517Z,9.20
2019-02-10T11:43:12.666Z,9.20
2019-02-10T11:45:43.991Z,9.10
2019-02-10T11:48:15.381Z,9.10
2019-02-10T11:50:46.537Z,9.30
2019-02-10T11:53:17.847Z,9.60
2019-02-10T11:55:49.012Z,10.10
2019-02-10T11:58:20.318Z,10.40
2019-02-10T12:00:51.692Z,10.60
2019-02-10T12:03:23.209Z,10.70
2019-02-10T12:05:55.551Z,10.70
2019-02-10T12:08:35.366Z,10.60
2019-02-10T12:11:00.758Z,10.60
2019-02-10T12:13:32.163Z,10.70
2019-02-10T12:16:03.311Z,10.90
2019-02-10T12:18:34.521Z,11.10
2019-02-10T12:21:06.167Z,11.20
2019-02-10T12:23:37.668Z,11.20
2019-02-10T12:26:09.213Z,11.10
2019-02-10T12:28:40.437Z,11.00
2019-02-10T12:31:11.830Z,10.80
2019-02-10T12:33:42.965Z,10.60
2019-02-10T12:36:14.259Z,10.40
2019-02-10T12:38:45.630Z,10.20
2019-02-10T12:41:16.866Z,10.10
2019-02-10T12:43:48.334Z,9.90
2019-02-10T12:46:19.667Z,9.80
2019-02-10T12:48:50.859Z,9.80
2019-02-10T12:51:22.181Z,9.80
2019-02-10T12:53:53.715Z,9.80
2019-02-10T12:56:24.978Z,9.90
2019-02-10T12:58:56.275Z,10.10
2019-02-10T13:01:27.607Z,10.10
2019-02-10T13:03:59.378Z,10.10
2019-02-10T13:06:30.742Z,9.90
2019-02-10T13:09:01.898Z,9.80
2019-02-10T13:11:34.926Z,9.70
2019-02-10T13:14:06.295Z,9.50
2019-02-10T13:16:37.666Z,9.40
2019-02-10T13:19:08.885Z,9.20
2019-02-10T13:21:40.106Z,9.10
2019-02-10T13:24:11.678Z,9.10
2019-02-10T13:26:42.994Z,9.10
2019-02-10T13:29:14.251Z,9.20
2019-02-10T13:31:45.398Z,9.20
2019-02-10T13:34:16.915Z,9.20
2019-02-10T13:36:48.143Z,9.20
2019-02-10T13:39:19.682Z,9.20
2019-02-10T13:41:48.718Z,9.10
2019-02-10T13:44:20.193Z,9.00
2019-02-10T13:46:51.356Z,8.80
2019-02-10T13:49:22.847Z,8.60
2019-02-10T13:51:54.195Z,8.50
2019-02-10T13:54:25.412Z,8.30
2019-02-10T13:56:57.399Z,8.10
2019-02-10T13:59:28.537Z,8.10
2019-02-10T14:02:00.006Z,8.00
2019-02-10T14:04:31.487Z,7.90
2019-02-10T14:07:03.246Z,7.90
2019-02-10T14:09:35.468Z,7.80
2019-02-10T14:12:06.806Z,7.70
2019-02-10T14:14:38.222Z,7.70
2019-02-10T14:17:09.696Z,7.70
2019-02-10T14:19:41.095Z,7.80
2019-02-10T14:22:12.518Z,7.80
2019-02-10T14:24:43.792Z,7.80
2019-02-10T14:27:15.440Z,7.70
2019-02-10T14:29:47.007Z,7.80
2019-02-10T14:32:18.390Z,7.80
2019-02-10T14:34:49.813Z,7.90
2019-02-10T14:37:21.623Z,7.90
2019-02-10T14:39:53.002Z,7.90
2019-02-10T14:42:24.594Z,7.90
2019-02-10T14:44:55.895Z,8.00
2019-02-10T14:47:27.124Z,8.20
2019-02-10T14:49:58.488Z,8.40
2019-02-10T14:52:29.945Z,9.10
2019-02-10T14:55:01.145Z,10.00
2019-02-10T14:57:32.815Z,10.40
2019-02-10T15:00:04.599Z,10.60
2019-02-10T15:02:37.610Z,10.80
2019-02-10T15:05:09.140Z,10.90
2019-02-10T15:07:41.664Z,10.90
2019-02-10T15:10:14.024Z,10.80
2019-02-10T15:12:45.973Z,10.90
2019-02-10T15:15:17.339Z,10.70
2019-02-10T15:17:48.684Z,10.70
2019-02-10T15:20:20.231Z,10.60
2019-02-10T15:22:51.659Z,10.40
2019-02-10T15:25:23.053Z,10.20
2019-02-10T15:27:54.721Z,10.10
2019-02-10T15:30:25.963Z,10.00
2019-02-10T15:32:57.315Z,9.80
2019-02-10T15:35:28.847Z,9.60
2019-02-10T15:38:00.265Z,9.50
2019-02-10T15:40:31.875Z,9.40
2019-02-10T15:43:03.300Z,9.30
2019-02-10T15:45:35.291Z,9.10
2019-02-10T15:48:07.045Z,8.90
2019-02-10T15:50:38.404Z,8.80
2019-02-10T15:53:10.049Z,8.50
2019-02-10T15:55:41.343Z,8.30
2019-02-10T15:58:12.568Z,8.30
2019-02-10T16:00:43.933Z,8.30
2019-02-10T16:03:15.178Z,8.20
2019-02-10T16:05:46.694Z,8.10
2019-02-10T16:08:18.091Z,8.10
2019-02-10T16:10:49.320Z,8.10
2019-02-10T16:13:20.590Z,8.00
2019-02-10T16:15:51.830Z,8.00
2019-02-10T16:18:23.170Z,8.00
2019-02-10T16:20:54.560Z,8.00
2019-02-10T16:23:25.981Z,7.90
2019-02-10T16:25:57.317Z,7.70
2019-02-10T16:28:29.241Z,7.80
2019-02-10T16:31:00.642Z,7.90
2019-02-10T16:33:32.021Z,8.00
2019-02-10T16:36:03.434Z,8.00
2019-02-10T16:38:34.778Z,8.00
2019-02-10T16:41:09.617Z,8.10
2019-02-10T16:43:41.352Z,8.10
2019-02-10T16:46:12.705Z,8.00
2019-02-10T16:48:44.073Z,8.00
2019-02-10T16:51:15.543Z,8.00
2019-02-10T16:53:47.221Z,8.10
2019-02-10T16:56:18.706Z,8.20
2019-02-10T16:58:50.162Z,8.30
2019-02-10T17:01:21.550Z,8.50
2019-02-10T17:03:52.976Z,8.40
2019-02-10T17:06:24.648Z,8.40
2019-02-10T17:08:56.083Z,8.40
2019-02-10T17:11:27.331Z,8.30
2019-02-10T17:13:58.744Z,8.30
2019-02-10T17:16:29.893Z,8.20
2019-02-10T17:19:01.427Z,8.10
2019-02-10T17:21:32.700Z,8.10
2019-02-10T17:24:06.208Z,8.00
2019-02-10T17:26:38.382Z,8.00
2019-02-10T17:29:09.725Z,8.00
2019-02-10T17:31:41.004Z,8.00
2019-02-10T17:34:13.060Z,8.00
2019-02-10T17:36:44.677Z,7.90
2019-02-10T17:39:20.143Z,7.90
2019-02-10T17:41:51.748Z,7.70
2019-02-10T17:44:23.106Z,7.60
2019-02-10T17:46:54.471Z,7.50
2019-02-10T17:49:26.033Z,7.40
2019-02-10T17:51:57.396Z,7.40
2019-02-10T17:54:28.633Z,7.40
2019-02-10T17:56:59.885Z,7.40
2019-02-10T17:59:31.445Z,7.40
2019-02-10T18:02:02.803Z,7.50
2019-02-10T18:04:37.534Z,7.50
2019-02-10T18:07:07.797Z,7.50
2019-02-10T18:09:39.279Z,7.50
2019-02-10T18:12:10.768Z,7.50
2019-02-10T18:15:10.738Z,7.60
2019-02-10T18:17:57.642Z,7.50
2019-02-10T18:20:36.866Z,7.60
2019-02-10T18:23:30.343Z,7.60
2019-02-10T18:26:14.408Z,7.60
2019-02-10T18:29:05.344Z,7.60
2019-02-10T18:31:42.726Z,7.60
2019-02-10T18:34:33.301Z,7.50
2019-02-10T18:37:38.839Z,7.60
2019-02-10T18:40:35.337Z,7.60
2019-02-10T18:43:24.208Z,7.60
2019-02-10T18:46:17.623Z,7.60
2019-02-10T18:49:19.945Z,7.60
2019-02-10T18:52:15.852Z,7.60
2019-02-10T18:54:52.780Z,7.50
2019-02-10T18:57:46.378Z,7.50
2019-02-10T19:00:38.020Z,7.50
2019-02-10T19:03:20.242Z,7.50
2019-02-10T19:06:10.572Z,7.30
2019-02-10T19:08:51.091Z,6.80
2019-02-10T19:11:31.765Z,6.10
2019-02-10T19:14:13.118Z,5.40
2019-02-10T19:17:02.043Z,5.00
2019-02-10T19:19:52.368Z,4.80
2019-02-10T19:22:42.470Z,4.70
2019-02-10T19:25:30.681Z,4.60
2019-02-10T19:28:27.521Z,4.60
2019-02-10T19:31:16.429Z,4.50
2019-02-10T19:33:54.592Z,4.40
2019-02-10T19:36:39.457Z,4.20
2019-02-10T19:39:21.771Z,4.20
2019-02-10T19:42:10.663Z,4.20
2019-02-10T19:45:07.120Z,4.30
2019-02-10T19:48:06.613Z,4.20
2019-02-10T19:51:05.955Z,4.10
2019-02-10T19:53:47.157Z,4.10
2019-02-10T19:56:43.699Z,4.10
2019-02-10T19:59:40.441Z,4.10
2019-02-10T20:02:20.353Z,4.20
2019-02-10T20:05:01.560Z,4.30
2019-02-10T20:07:53.992Z,4.30
2019-02-10T20:10:33.666Z,4.40
2019-02-10T20:13:14.113Z,4.50
2019-02-10T20:16:04.422Z,4.50
2019-02-10T20:18:44.025Z,4.40
2019-02-10T20:21:27.084Z,4.40
2019-02-10T20:24:16.384Z,4.40
2019-02-10T20:27:05.503Z,4.30
2019-02-10T20:29:54.110Z,4.30
2019-02-10T20:32:53.231Z,4.30
2019-02-10T20:35:33.303Z,4.30
2019-02-10T20:38:24.886Z,4.30
2019-02-10T20:41:10.901Z,4.30
2019-02-10T20:43:54.662Z,4.30
2019-02-10T20:46:40.519Z,4.50
2019-02-10T20:49:31.123Z,4.60
2019-02-10T20:52:17.570Z,4.60
2019-02-10T20:55:16.732Z,4.70
2019-02-10T20:58:02.327Z,4.80
2019-02-10T21:00:39.257Z,4.80
2019-02-10T21:03:20.159Z,4.80
2019-02-10T21:06:12.281Z,4.80
2019-02-10T21:08:57.664Z,4.70
2019-02-10T21:11:57.082Z,4.70
2019-02-10T21:14:41.235Z,4.60
2019-02-10T21:17:20.267Z,4.70
2019-02-10T21:20:05.390Z,4.50
2019-02-10T21:22:58.617Z,4.50
2019-02-10T21:25:35.570Z,4.50
2019-02-10T21:28:16.454Z,4.60
2019-02-10T21:31:05.585Z,4.60
2019-02-10T21:34:11.175Z,4.60
2019-02-10T21:37:04.088Z,4.60
2019-02-10T21:39:45.045Z,4.50
2019-02-10T21:42:41.113Z,4.40
2019-02-10T21:45:28.087Z,4.50
2019-02-10T21:48:21.322Z,4.50
2019-02-10T21:50:52.661Z,4.50
2019-02-10T21:53:24.036Z,4.40
2019-02-10T21:55:55.734Z,4.40
2019-02-10T21:58:27.125Z,4.30
2019-02-10T22:00:58.542Z,4.30
2019-02-10T22:03:29.885Z,4.30
2019-02-10T22:06:01.951Z,4.40
2019-02-10T22:08:33.186Z,4.30
2019-02-10T22:11:04.991Z,4.40
2019-02-10T22:13:36.757Z,4.40
2019-02-10T22:16:09.106Z,4.50
2019-02-10T22:18:40.914Z,2.60
2019-02-10T22:21:12.319Z,4.50
2019-02-10T22:23:43.576Z,4.50
2019-02-10T22:26:15.041Z,4.50
2019-02-10T22:28:47.417Z,4.40
2019-02-10T22:31:19.237Z,4.40
2019-02-10T22:33:51.743Z,4.40
2019-02-10T22:36:23.006Z,4.50
2019-02-10T22:38:54.613Z,4.40
2019-02-10T22:41:25.953Z,4.40
2019-02-10T22:43:57.347Z,4.40
2019-02-10T22:46:28.835Z,4.30
2019-02-10T22:49:00.193Z,4.30
2019-02-10T22:51:31.549Z,4.30
2019-02-10T22:54:03.255Z,4.30
2019-02-10T22:56:34.469Z,4.40
2019-02-10T22:59:05.933Z,4.30
2019-02-10T23:01:37.566Z,4.30
2019-02-10T23:04:09.068Z,4.20
2019-02-10T23:06:40.519Z,4.20
2019-02-10T23:09:24.768Z,4.20
2019-02-10T23:11:56.213Z,4.10
2019-02-10T23:14:27.850Z,4.20
2019-02-10T23:16:59.057Z,4.20
2019-02-10T23:19:30.502Z,4.20
2019-02-10T23:22:02.360Z,4.20
2019-02-10T23:24:33.621Z,4.20
2019-02-10T23:27:04.959Z,4.20
2019-02-10T23:29:36.626Z,4.30
2019-02-10T23:32:08.127Z,4.30
2019-02-10T23:34:39.398Z,4.20
2019-02-10T23:37:11.438Z,4.20
2019-02-10T23:39:43.032Z,4.20
2019-02-10T23:42:14.294Z,4.10
2019-02-10T23:44:45.708Z,4.00
2019-02-10T23:47:17.802Z,4.00
2019-02-10T23:49:49.052Z,4.00
2019-02-10T23:52:20.486Z,4.00
2019-02-10T23:54:51.937Z,3.90
2019-02-10T23:57:23.237Z,3.90
2019-02-10T23:59:54.598Z,3.90
